Park Place, South Carolina
Current Conditions -  °F | °C
As of 9:53 PM on Friday 24 Oct 2014 (Local Time) from KGMU Reporting Station
Clear Clear  
Wind Chill: 54°   Ceiling: Unl
Heat Index: 54°   Visibility: 10mi
Dew Point: 46°   Wind: 0mph
Humidity: 75%   Direction: NA
Pressure: 30.04"   Gusts: NA
Location:  34.903°N, 82.4092°W
Report Text: KGMU 250153Z 00000KT 10SM CLR 12/08 A3004 RMK AO2 SLP170 T01220078
Loading
Personal Weather Stations






























Interactive Weather Map
Tropical Storm Tracking
New forecast layout! Learn more

10-Day Weather Forecast

Advertisements
Track Severe Weather on mobile